Putnam, TX (76469)

5:13 AM CDT on July 24, 2014 (GMT -0500)
Rawhide Six Shooter 1.5 miles west of Cisco (KTXCISCO3) Elev 1657 ft | 32.39 °N, 99.01 °W | Change Station

Current weather conditions updated 8 minutes ago

Partly Cloudy
Partly Cloudy
74.7 °F
Feels Like 76 °F
N
3.0
Wind Variable Wind from SSE
Gusts 5.0 mph

Today is forecast to be nearly the same temperature as yesterday.

Today
High -- | Low -- °F
--% Chance of Precip.
Yesterday
High -- | Low -- °F
Precip. -- in
6:46 AM 8:40 PM
Waning Crescent, 6% visible
Pressure 29.99 in
Visibility 10.0 miles
Clouds Clear
Heat Index 76 °F
Dew Point 67 °F
Humidity 77%
Rainfall 0.00 in
Snow Depth Not available.
UV 0 out of 12
Pollen 5.40 out of 12
Air Quality Not available.
Flu Activity Not available.
METAR KABI 240952Z 19006KT 10SM CLR 24/18 A3007 RMK AO2 SLP153 T02440183

More Conditions Fewer Conditions

Pressure 29.99 in
Visibility 10.0 miles
Clouds Clear
Heat Index 76 °F
Dew Point 67 °F
Humidity 77%
Rainfall 0.00 in
Snow Depth Not available.
UV 0 out of 12
Pollen 5.40 out of 12
Air Quality Not available.
Flu Activity Not available.
METAR KABI 240952Z 19006KT 10SM CLR 24/18 A3007 RMK AO2 SLP153 T02440183

More Conditions Fewer Conditions

10-Day Weather Forecast

Almanac

Astronomy

Jul. 24, 2014 Rise Set
Actual Time 6:46 AM CDT 8:40 PM CDT
Civil Twilight 6:18 AM CDT 9:07 PM CDT
Nautical Twilight 5:45 AM CDT 9:40 PM CDT
Astronomical Twilight 5:10 AM CDT 10:15 PM CDT
Moon 4:54 AM CDT 6:58 PM CDT
Length of Visible Light 14h 48m
Length of Day
13h 53m
Tomorrow will be 1m 17s shorter.
Waning Crescent, 6% of the Moon is Illuminated
Today
Waning Crescent
Jul 26
New
Aug 3
First Quarter
Aug 10
Full
Aug 17
Last Quarter

Today's Extremes

State Highs State Lows

Community

WunderPhotos

Upload Photos

1,736,964 photos uploaded!

Nearby

Snow Depth

Station Depth Elevation
No new snow has been reported.

Earthquake Activity

City Distance Mag. Time & Date
No recent earthquake activity has been reported nearby.
Minimum magnitude displayed is 2.5.

Coastal Water Temperatures

Place Temperature
No Stations Reporting

Nearby Weather Stations

Station Location Temp. Heat Index Dew Point Humidity Wind Precip. Elev Updated Type
MesoWest PUTNAM , Putnam, TX 81 °F 79 °F - - North  at  - 0.00 in / hr 1534 ft 2:45 AM CDT MADIS
Rawhide Six Shooter 1.5 miles west of Ci, Cisco, TX 74.7 °F 76 °F 67 °F 77% SSE  at  3.0 mph 0.00 in / hr 1657 ft 5:05 AM CDT Normal
LCRA Cross Plains 6 WNW, Cross Plains, TX 69 °F - 64 °F 84% North  at  - 0.00 in / hr 1806 ft 3:45 AM CDT MADIS
LCRA Clyde 6 S, Clyde, TX 74 °F 75 °F 67 °F 79% North  at  - 0.00 in / hr 1911 ft 3:45 AM CDT MADIS
MesoWest CLYDE , Clyde, TX 79 °F 77 °F - - North  at  - 0.00 in / hr 1963 ft 3:20 AM CDT MADIS
Albany, Albany, TX 77.3 °F 79 °F 67 °F 71% West  at  0.0 mph 0.00 in / hr 1424 ft 5:10 AM CDT Normal

Show More Stations Show Fewer Stations